createdAt,value
2018-07-27T00:00:50.117Z,2.40
2018-07-27T00:03:18.795Z,2.00
2018-07-27T00:05:47.538Z,2.20
2018-07-27T00:08:16.200Z,2.33
2018-07-27T00:10:44.883Z,2.53
2018-07-27T00:13:13.666Z,2.57
2018-07-27T00:15:42.385Z,2.33
2018-07-27T00:18:13.942Z,2.40
2018-07-27T00:20:42.619Z,2.50
2018-07-27T00:23:11.315Z,2.13
2018-07-27T00:25:40.214Z,2.33
2018-07-27T00:28:09.043Z,2.37
2018-07-27T00:30:38.691Z,2.40
2018-07-27T00:33:07.404Z,2.27
2018-07-27T00:35:36.220Z,2.40
2018-07-27T00:38:05.115Z,2.53
2018-07-27T00:40:33.971Z,1.93
2018-07-27T00:43:02.621Z,2.60
2018-07-27T00:45:31.312Z,2.60
2018-07-27T00:48:00.332Z,2.30
2018-07-27T00:50:29.168Z,2.30
2018-07-27T00:52:57.913Z,2.60
2018-07-27T00:55:26.639Z,2.70
2018-07-27T00:57:55.403Z,2.60
2018-07-27T01:00:24.137Z,2.93
2018-07-27T01:02:52.953Z,2.37
2018-07-27T01:05:21.686Z,2.20
2018-07-27T01:07:50.787Z,2.67
2018-07-27T01:10:19.554Z,2.40
2018-07-27T01:12:48.291Z,2.70
2018-07-27T01:15:16.944Z,3.07
2018-07-27T01:17:45.553Z,2.53
2018-07-27T01:20:14.248Z,2.30
2018-07-27T01:22:42.986Z,2.53
2018-07-27T01:25:11.662Z,2.83
2018-07-27T01:27:40.333Z,2.20
2018-07-27T01:30:09.144Z,2.53
2018-07-27T01:32:37.908Z,2.37
2018-07-27T01:35:06.659Z,2.13
2018-07-27T01:37:35.344Z,2.20
2018-07-27T01:40:04.094Z,2.60
2018-07-27T01:42:32.844Z,2.60
2018-07-27T01:45:01.533Z,2.57
2018-07-27T01:47:30.219Z,2.40
2018-07-27T01:49:58.897Z,3.20
2018-07-27T01:52:27.720Z,2.30
2018-07-27T01:54:56.434Z,2.60
2018-07-27T01:57:25.133Z,2.30
2018-07-27T01:59:54.033Z,2.50
2018-07-27T02:02:22.766Z,2.13
2018-07-27T02:04:51.431Z,2.60
2018-07-27T02:07:20.113Z,2.30
2018-07-27T02:09:48.764Z,2.40
2018-07-27T02:12:17.606Z,2.50
2018-07-27T02:14:46.338Z,2.87
2018-07-27T02:17:15.048Z,2.60
2018-07-27T02:19:43.752Z,2.43
2018-07-27T02:22:12.515Z,2.43
2018-07-27T02:24:41.214Z,2.70
2018-07-27T02:27:09.905Z,2.13
2018-07-27T02:29:38.581Z,2.17
2018-07-27T02:33:09.888Z,2.30
2018-07-27T02:35:38.645Z,2.70
2018-07-27T02:38:07.309Z,2.50
2018-07-27T02:40:35.991Z,2.40
2018-07-27T02:43:04.799Z,2.30
2018-07-27T02:45:33.426Z,2.53
2018-07-27T02:48:02.133Z,2.57
2018-07-27T02:50:30.881Z,2.20
2018-07-27T02:52:59.466Z,2.40
2018-07-27T02:55:28.173Z,2.70
2018-07-27T02:57:56.943Z,2.30
2018-07-27T03:00:25.553Z,2.47
2018-07-27T03:02:54.260Z,2.40
2018-07-27T03:05:22.935Z,2.70
2018-07-27T03:07:52.381Z,2.53
2018-07-27T03:10:21.031Z,2.30
2018-07-27T03:12:49.993Z,2.40
2018-07-27T03:15:18.743Z,2.33
2018-07-27T03:17:47.385Z,2.27
2018-07-27T03:20:16.151Z,2.10
2018-07-27T03:22:44.725Z,2.57
2018-07-27T03:25:13.380Z,2.30
2018-07-27T03:27:42.067Z,2.43
2018-07-27T03:30:10.863Z,2.10
2018-07-27T03:32:39.625Z,2.20
2018-07-27T03:35:08.329Z,2.40
2018-07-27T03:37:37.087Z,2.50
2018-07-27T03:40:06.261Z,2.37
2018-07-27T03:42:34.958Z,2.40
2018-07-27T03:45:03.771Z,2.40
2018-07-27T03:47:32.395Z,2.50
2018-07-27T03:50:01.047Z,2.20
2018-07-27T03:52:29.673Z,2.20
2018-07-27T03:54:58.390Z,2.40
2018-07-27T03:57:27.045Z,2.30
2018-07-27T03:59:55.803Z,2.43
2018-07-27T04:02:24.544Z,2.40
2018-07-27T04:04:53.220Z,2.50
2018-07-27T04:07:21.893Z,2.10
2018-07-27T04:09:50.548Z,2.60
2018-07-27T04:12:23.529Z,2.70
2018-07-27T04:14:52.839Z,2.60
2018-07-27T04:17:21.642Z,2.17
2018-07-27T04:19:50.640Z,2.33
2018-07-27T04:22:19.892Z,2.30
2018-07-27T04:24:48.612Z,2.10
2018-07-27T04:27:17.264Z,2.70
2018-07-27T04:29:45.941Z,2.30
2018-07-27T04:32:14.559Z,2.23
2018-07-27T04:34:43.258Z,2.23
2018-07-27T04:37:11.925Z,2.37
2018-07-27T04:39:40.550Z,2.20
2018-07-27T04:42:09.295Z,2.57
2018-07-27T04:44:38.158Z,2.27
2018-07-27T04:47:06.913Z,2.10
2018-07-27T04:49:35.615Z,3.00
2018-07-27T04:52:04.481Z,1.97
2018-07-27T04:54:33.238Z,2.20
2018-07-27T04:57:01.881Z,2.13
2018-07-27T04:59:30.551Z,2.00
2018-07-27T05:01:59.434Z,2.70
2018-07-27T05:04:28.180Z,2.30
2018-07-27T05:06:56.819Z,2.90
2018-07-27T05:09:25.657Z,2.50
2018-07-27T05:11:54.682Z,1.90
2018-07-27T05:14:23.345Z,1.93
2018-07-27T05:16:52.231Z,1.53
2018-07-27T05:19:20.822Z,1.70
2018-07-27T05:21:49.549Z,1.40
2018-07-27T05:24:18.271Z,1.80
2018-07-27T05:26:47.000Z,1.43
2018-07-27T05:29:15.762Z,1.43
2018-07-27T05:31:44.398Z,1.47
2018-07-27T05:34:13.049Z,1.60
2018-07-27T05:36:41.823Z,1.97
2018-07-27T05:39:11.915Z,1.37
2018-07-27T05:41:40.681Z,1.67
2018-07-27T05:44:09.544Z,1.13
2018-07-27T05:46:38.222Z,1.53
2018-07-27T05:49:07.020Z,1.40
2018-07-27T05:51:35.883Z,1.20
2018-07-27T05:54:04.612Z,1.10
2018-07-27T05:56:33.282Z,0.80
2018-07-27T05:59:01.921Z,1.10
2018-07-27T06:01:30.730Z,0.70
2018-07-27T06:03:59.610Z,0.57
2018-07-27T06:06:28.383Z,0.47
2018-07-27T06:08:57.083Z,0.60
2018-07-27T06:11:25.824Z,0.80
2018-07-27T06:13:54.734Z,0.40
2018-07-27T06:16:23.414Z,0.40
2018-07-27T06:18:52.083Z,0.70
2018-07-27T06:21:20.960Z,0.50
2018-07-27T06:23:49.793Z,1.10
2018-07-27T06:26:18.427Z,0.67
2018-07-27T06:28:47.137Z,0.50
2018-07-27T06:31:15.874Z,0.53
2018-07-27T06:33:44.568Z,0.87
2018-07-27T06:36:13.222Z,0.80
2018-07-27T06:38:41.931Z,0.70
2018-07-27T06:41:10.623Z,0.50
2018-07-27T06:43:39.415Z,0.50
2018-07-27T06:46:08.175Z,0.53
2018-07-27T06:48:36.877Z,0.53
2018-07-27T06:51:05.627Z,0.67
2018-07-27T06:53:34.361Z,0.53
2018-07-27T06:56:03.181Z,0.60
2018-07-27T06:58:31.806Z,0.70
2018-07-27T07:01:00.436Z,0.70
2018-07-27T07:03:29.163Z,0.53
2018-07-27T07:05:59.004Z,0.50
2018-07-27T07:08:27.717Z,0.70
2018-07-27T07:10:56.343Z,0.43
2018-07-27T07:13:25.023Z,0.47
2018-07-27T07:15:53.779Z,0.57
2018-07-27T07:18:22.554Z,0.80
2018-07-27T07:20:51.485Z,0.43
2018-07-27T07:23:20.181Z,0.50
2018-07-27T07:25:48.947Z,0.47
2018-07-27T07:28:17.570Z,0.50
2018-07-27T07:30:46.271Z,0.37
2018-07-27T07:33:14.984Z,0.70
2018-07-27T07:35:43.880Z,0.30
2018-07-27T07:38:12.705Z,0.30
2018-07-27T07:40:41.313Z,0.70
2018-07-27T07:43:10.069Z,0.60
2018-07-27T07:45:38.871Z,0.70
2018-07-27T07:48:07.516Z,0.30
2018-07-27T07:50:36.242Z,0.50
2018-07-27T07:53:04.943Z,0.40
2018-07-27T07:55:33.712Z,0.50
2018-07-27T07:58:02.479Z,0.40
2018-07-27T08:00:31.227Z,0.50
2018-07-27T08:02:59.876Z,0.30
2018-07-27T08:05:28.642Z,0.40
2018-07-27T08:07:57.710Z,0.30
2018-07-27T08:10:26.313Z,0.50
2018-07-27T08:12:55.161Z,0.37
2018-07-27T08:15:23.929Z,0.40
2018-07-27T08:17:52.624Z,0.40
2018-07-27T08:20:21.318Z,0.30
2018-07-27T08:22:50.193Z,0.37
2018-07-27T08:25:18.990Z,0.20
2018-07-27T08:27:53.619Z,0.33
2018-07-27T08:30:22.318Z,0.30
2018-07-27T08:32:51.044Z,0.37
2018-07-27T08:35:19.748Z,0.37
2018-07-27T08:37:48.401Z,0.20
2018-07-27T08:40:17.160Z,0.40
2018-07-27T08:42:45.891Z,0.40
2018-07-27T08:45:14.550Z,0.50
2018-07-27T08:47:43.334Z,0.23
2018-07-27T08:50:12.045Z,0.40
2018-07-27T08:52:40.918Z,0.30
2018-07-27T08:55:09.718Z,0.30
2018-07-27T08:57:38.485Z,0.50
2018-07-27T09:00:07.146Z,0.60
2018-07-27T09:02:35.976Z,0.50
2018-07-27T09:05:04.848Z,0.30
2018-07-27T09:07:33.518Z,0.40
2018-07-27T09:10:02.290Z,0.40
2018-07-27T09:12:31.124Z,0.50
2018-07-27T09:14:59.903Z,0.30
2018-07-27T09:17:28.697Z,0.50
2018-07-27T09:19:57.395Z,0.30
2018-07-27T09:22:26.099Z,0.40
2018-07-27T09:24:56.163Z,0.50
2018-07-27T09:27:24.655Z,0.60
2018-07-27T09:29:53.389Z,0.40
2018-07-27T09:32:22.130Z,0.30
2018-07-27T09:34:50.854Z,0.30
2018-07-27T09:37:19.783Z,0.37
2018-07-27T09:39:48.436Z,0.30
2018-07-27T09:42:17.136Z,0.40
2018-07-27T09:44:45.937Z,0.50
2018-07-27T09:47:14.743Z,0.40
2018-07-27T09:49:43.437Z,0.30
2018-07-27T09:52:12.104Z,0.40
2018-07-27T09:54:40.836Z,0.60
2018-07-27T09:57:09.516Z,0.40
2018-07-27T09:59:38.174Z,0.40
2018-07-27T10:02:07.186Z,0.47
2018-07-27T10:04:35.842Z,0.47
2018-07-27T10:07:04.623Z,0.50
2018-07-27T10:09:33.297Z,0.60
2018-07-27T10:12:02.313Z,0.67
2018-07-27T10:14:31.041Z,0.37
2018-07-27T10:16:59.850Z,0.37
2018-07-27T10:19:28.597Z,0.63
2018-07-27T10:21:57.342Z,0.50
2018-07-27T10:24:26.078Z,0.40
2018-07-27T10:26:54.795Z,0.50
2018-07-27T10:29:23.523Z,0.37
2018-07-27T10:31:52.197Z,0.40
2018-07-27T10:34:20.912Z,0.60
2018-07-27T10:36:49.563Z,0.60
2018-07-27T10:39:18.226Z,0.47
2018-07-27T10:41:46.943Z,0.40
2018-07-27T10:44:15.569Z,0.60
2018-07-27T10:46:44.261Z,0.40
2018-07-27T10:49:12.868Z,0.57
2018-07-27T10:51:41.730Z,0.40
2018-07-27T10:54:10.864Z,0.80
2018-07-27T10:56:39.587Z,0.37
2018-07-27T10:59:09.063Z,0.57
2018-07-27T11:01:37.875Z,0.50
2018-07-27T11:04:06.660Z,0.40
2018-07-27T11:06:35.364Z,0.40
2018-07-27T11:09:04.708Z,0.50
2018-07-27T11:11:33.392Z,0.40
2018-07-27T11:14:02.401Z,0.40
2018-07-27T11:16:31.090Z,0.47
2018-07-27T11:18:59.869Z,0.60
2018-07-27T11:21:28.642Z,0.67
2018-07-27T11:23:57.302Z,0.50
2018-07-27T11:26:25.908Z,0.40
2018-07-27T11:28:54.580Z,0.47
2018-07-27T11:31:23.215Z,0.50
2018-07-27T11:33:52.001Z,0.50
2018-07-27T11:36:20.681Z,0.60
2018-07-27T11:38:49.387Z,0.40
2018-07-27T11:41:18.113Z,0.70
2018-07-27T11:43:46.804Z,0.33
2018-07-27T11:46:15.503Z,0.60
2018-07-27T11:48:44.296Z,0.73
2018-07-27T11:51:13.036Z,0.60
2018-07-27T11:53:41.957Z,0.60
2018-07-27T11:56:10.620Z,0.60
2018-07-27T11:58:39.242Z,0.60
2018-07-27T12:01:08.202Z,0.70
2018-07-27T12:03:36.923Z,0.70
2018-07-27T12:06:05.830Z,0.67
2018-07-27T12:08:34.617Z,0.70
2018-07-27T12:11:03.323Z,0.60
2018-07-27T12:13:32.044Z,0.73
2018-07-27T12:16:00.793Z,0.70
2018-07-27T12:18:29.450Z,0.70
2018-07-27T12:20:58.324Z,0.50
2018-07-27T12:23:27.053Z,0.60
2018-07-27T12:25:55.666Z,0.30
2018-07-27T12:28:24.296Z,0.43
2018-07-27T12:30:53.196Z,0.40
2018-07-27T12:33:21.872Z,0.43
2018-07-27T12:35:50.608Z,0.30
2018-07-27T12:38:19.414Z,0.30
2018-07-27T12:40:48.037Z,0.20
2018-07-27T12:43:16.740Z,0.57
2018-07-27T12:45:45.411Z,0.40
2018-07-27T12:48:14.208Z,0.30
2018-07-27T12:50:42.958Z,0.30
2018-07-27T12:53:11.558Z,0.30
2018-07-27T12:55:40.309Z,0.40
2018-07-27T12:58:09.003Z,0.40
2018-07-27T13:00:37.753Z,0.50
2018-07-27T13:03:06.947Z,0.40
2018-07-27T13:05:35.675Z,0.40
2018-07-27T13:08:04.560Z,0.20
2018-07-27T13:10:33.276Z,0.30
2018-07-27T13:13:02.064Z,0.40
2018-07-27T13:15:30.777Z,0.30
2018-07-27T13:17:59.438Z,0.40
2018-07-27T13:20:38.061Z,0.50
2018-07-27T13:23:07.148Z,0.30
2018-07-27T13:25:35.812Z,0.40
2018-07-27T13:30:33.479Z,0.53
2018-07-27T13:33:02.304Z,0.47
2018-07-27T13:35:31.005Z,0.30
2018-07-27T13:37:59.820Z,0.50
2018-07-27T13:40:28.598Z,0.40
2018-07-27T13:42:57.230Z,0.40
2018-07-27T13:45:25.923Z,0.30
2018-07-27T13:47:54.666Z,0.50
2018-07-27T13:50:23.398Z,0.50
2018-07-27T13:52:52.011Z,0.40
2018-07-27T13:55:20.766Z,0.60
2018-07-27T13:57:49.416Z,0.40
2018-07-27T14:00:18.059Z,0.43
2018-07-27T14:02:46.822Z,0.47
2018-07-27T14:05:15.545Z,0.40
2018-07-27T14:07:44.253Z,0.40
2018-07-27T14:10:12.956Z,0.53
2018-07-27T14:12:41.629Z,0.50
2018-07-27T14:15:10.324Z,0.40
2018-07-27T14:17:38.954Z,0.33
2018-07-27T14:20:07.767Z,0.50
2018-07-27T14:22:36.402Z,0.20
2018-07-27T14:25:05.254Z,0.53
2018-07-27T14:27:34.078Z,0.30
2018-07-27T14:30:03.024Z,0.30
2018-07-27T14:32:31.711Z,0.37
2018-07-27T14:35:00.463Z,0.50
2018-07-27T14:37:29.365Z,0.20
2018-07-27T14:39:57.962Z,0.43
2018-07-27T14:42:26.661Z,0.33
2018-07-27T14:44:55.435Z,0.23
2018-07-27T14:47:24.139Z,0.40
2018-07-27T14:49:52.783Z,0.73
2018-07-27T14:52:21.515Z,0.40
2018-07-27T14:54:50.176Z,0.40
2018-07-27T14:57:18.933Z,0.57
2018-07-27T14:59:47.599Z,0.43
2018-07-27T15:02:16.211Z,0.50
2018-07-27T15:04:45.014Z,0.30
2018-07-27T15:07:13.840Z,0.40
2018-07-27T15:09:42.476Z,0.50
2018-07-27T15:12:11.233Z,0.40
2018-07-27T15:14:39.856Z,0.33
2018-07-27T15:17:08.480Z,0.40
2018-07-27T15:19:37.086Z,0.40
2018-07-27T15:22:06.106Z,0.40
2018-07-27T15:24:34.941Z,0.40
2018-07-27T15:27:03.666Z,0.37
2018-07-27T15:29:32.356Z,0.40
2018-07-27T15:32:01.037Z,0.47
2018-07-27T15:34:29.599Z,0.40
2018-07-27T15:36:58.252Z,0.30
2018-07-27T15:39:26.963Z,0.50
2018-07-27T15:41:55.662Z,0.40
2018-07-27T15:44:24.307Z,0.40
2018-07-27T15:46:52.959Z,0.40
2018-07-27T15:49:21.650Z,0.40
2018-07-27T15:51:50.305Z,0.50
2018-07-27T15:54:18.987Z,0.47
2018-07-27T15:56:47.728Z,0.50
2018-07-27T15:59:16.302Z,0.50
2018-07-27T16:01:45.024Z,0.40
2018-07-27T16:04:13.804Z,0.60
2018-07-27T16:06:42.398Z,0.40
2018-07-27T16:09:11.417Z,0.40
2018-07-27T16:11:40.156Z,0.40
2018-07-27T16:14:09.162Z,0.50
2018-07-27T16:16:37.893Z,0.50
2018-07-27T16:19:06.719Z,0.50
2018-07-27T16:21:35.449Z,0.77
2018-07-27T16:24:04.401Z,0.87
2018-07-27T16:26:33.099Z,0.70
2018-07-27T16:29:01.729Z,0.63
2018-07-27T16:31:30.378Z,1.60
2018-07-27T16:33:59.023Z,0.93
2018-07-27T16:36:27.727Z,0.60
2018-07-27T16:38:56.493Z,0.73
2018-07-27T16:41:25.307Z,0.60
2018-07-27T16:43:54.088Z,0.60
2018-07-27T16:46:22.750Z,0.70
2018-07-27T16:48:51.402Z,0.70
2018-07-27T16:51:20.088Z,0.90
2018-07-27T16:53:48.828Z,0.83
2018-07-27T16:56:17.602Z,0.90
2018-07-27T16:58:46.341Z,1.03
2018-07-27T17:01:15.026Z,1.03
2018-07-27T17:03:43.689Z,0.83
2018-07-27T17:06:12.478Z,0.80
2018-07-27T17:08:41.090Z,0.90
2018-07-27T17:11:09.812Z,1.23
2018-07-27T17:13:38.461Z,1.20
2018-07-27T17:16:07.776Z,1.30
2018-07-27T17:18:36.433Z,1.50
2018-07-27T17:21:05.250Z,1.80
2018-07-27T17:23:34.093Z,1.60
2018-07-27T17:26:02.869Z,1.33
2018-07-27T17:28:31.597Z,1.30
2018-07-27T17:31:00.453Z,1.37
2018-07-27T17:33:29.312Z,1.00
2018-07-27T17:35:57.998Z,1.13
2018-07-27T17:38:26.732Z,1.00
2018-07-27T17:40:55.335Z,1.23
2018-07-27T17:43:24.272Z,1.00
2018-07-27T17:45:53.039Z,0.80
2018-07-27T17:48:21.763Z,1.00
2018-07-27T17:50:50.534Z,0.80
2018-07-27T17:53:19.247Z,0.87
2018-07-27T17:55:47.969Z,0.83
2018-07-27T17:58:16.858Z,0.80
2018-07-27T18:00:45.472Z,0.80
2018-07-27T18:03:14.194Z,0.80
2018-07-27T18:05:42.922Z,0.80
2018-07-27T18:08:11.718Z,1.17
2018-07-27T18:10:40.417Z,0.97
2018-07-27T18:13:09.284Z,1.20
2018-07-27T18:15:38.020Z,1.00
2018-07-27T18:18:07.065Z,1.17
2018-07-27T18:20:35.814Z,1.10
2018-07-27T18:23:04.607Z,1.30
2018-07-27T18:25:33.279Z,1.27
2018-07-27T18:28:02.011Z,1.20
2018-07-27T18:30:30.751Z,1.80
2018-07-27T18:32:59.581Z,1.37
2018-07-27T18:35:28.350Z,1.10
2018-07-27T18:37:57.108Z,1.40
2018-07-27T18:40:25.817Z,1.60
2018-07-27T18:42:54.561Z,1.40
2018-07-27T18:45:23.326Z,1.30
2018-07-27T18:47:52.037Z,1.30
2018-07-27T18:50:20.734Z,1.30
2018-07-27T18:52:49.476Z,1.30
2018-07-27T18:55:18.110Z,1.60
2018-07-27T18:57:46.932Z,1.40
2018-07-27T19:00:15.585Z,1.63
2018-07-27T19:02:44.227Z,1.60
2018-07-27T19:05:12.892Z,1.33
2018-07-27T19:07:41.590Z,1.87
2018-07-27T19:10:10.382Z,1.57
2018-07-27T19:12:39.191Z,1.60
2018-07-27T19:15:08.967Z,1.40
2018-07-27T19:17:37.867Z,1.20
2018-07-27T19:20:06.860Z,1.37
2018-07-27T19:22:35.577Z,1.43
2018-07-27T19:25:04.471Z,2.40
2018-07-27T19:27:33.208Z,1.60
2018-07-27T19:30:01.852Z,1.40
2018-07-27T19:32:30.543Z,1.30
2018-07-27T19:34:59.289Z,1.40
2018-07-27T19:37:28.061Z,1.60
2018-07-27T19:39:56.732Z,1.60
2018-07-27T19:42:25.557Z,1.50
2018-07-27T19:44:54.470Z,1.90
2018-07-27T19:47:23.491Z,1.73
2018-07-27T19:49:52.229Z,1.57
2018-07-27T19:52:20.961Z,1.40
2018-07-27T19:54:49.669Z,1.50
2018-07-27T19:57:18.466Z,1.60
2018-07-27T19:59:47.192Z,1.53
2018-07-27T20:02:16.786Z,1.70
2018-07-27T20:04:45.554Z,1.60
2018-07-27T20:07:14.316Z,1.67
2018-07-27T20:09:55.696Z,1.47
2018-07-27T20:12:24.386Z,6.83
2018-07-27T20:14:53.108Z,2.20
2018-07-27T20:17:22.130Z,1.90
2018-07-27T20:19:51.699Z,1.80
2018-07-27T20:22:20.532Z,1.90
2018-07-27T20:24:49.944Z,1.97
2018-07-27T20:27:18.817Z,1.90
2018-07-27T20:29:48.347Z,2.20
2018-07-27T20:32:17.001Z,2.03
2018-07-27T20:34:45.700Z,2.10
2018-07-27T20:37:14.540Z,2.20
2018-07-27T20:39:43.253Z,2.07
2018-07-27T20:42:13.607Z,1.97
2018-07-27T20:44:43.083Z,2.30
2018-07-27T20:47:11.979Z,2.40
2018-07-27T20:49:42.543Z,2.10
2018-07-27T20:52:11.480Z,2.23
2018-07-27T20:54:40.165Z,2.10
2018-07-27T20:57:09.827Z,2.13
2018-07-27T20:59:38.755Z,2.40
2018-07-27T21:02:07.696Z,2.40
2018-07-27T21:04:36.329Z,2.20
2018-07-27T21:07:05.974Z,2.03
2018-07-27T21:09:35.380Z,2.00
2018-07-27T21:12:04.565Z,2.30
2018-07-27T21:14:34.211Z,2.17
2018-07-27T21:17:03.767Z,2.30
2018-07-27T21:19:32.874Z,2.43
2018-07-27T21:22:01.779Z,2.50
2018-07-27T21:24:30.517Z,2.20
2018-07-27T21:26:59.217Z,2.50
2018-07-27T21:29:29.156Z,2.40
2018-07-27T21:32:04.053Z,1.90
2018-07-27T21:34:32.689Z,2.50
2018-07-27T21:37:02.189Z,2.53
2018-07-27T21:39:31.110Z,2.60
2018-07-27T21:41:59.825Z,2.40
2018-07-27T21:44:28.487Z,2.33
2018-07-27T21:46:57.483Z,2.10
2018-07-27T21:49:27.007Z,2.20
2018-07-27T21:51:55.737Z,2.40
2018-07-27T21:54:24.366Z,2.20
2018-07-27T21:56:53.829Z,2.33
2018-07-27T21:59:22.480Z,2.50
2018-07-27T22:01:51.383Z,2.20
2018-07-27T22:04:20.122Z,2.60
2018-07-27T22:06:48.825Z,2.43
2018-07-27T22:09:17.467Z,2.40
2018-07-27T22:11:46.498Z,2.40
2018-07-27T22:14:15.189Z,2.60
2018-07-27T22:16:43.883Z,2.40
2018-07-27T22:19:12.676Z,2.23
2018-07-27T22:21:42.175Z,2.70
2018-07-27T22:24:10.915Z,2.77
2018-07-27T22:26:39.635Z,2.77
2018-07-27T22:29:08.547Z,2.47
2018-07-27T22:31:37.177Z,2.40
2018-07-27T22:34:05.950Z,2.63
2018-07-27T22:36:35.351Z,2.90
2018-07-27T22:39:04.417Z,2.80
2018-07-27T22:41:33.159Z,2.80
2018-07-27T22:44:01.898Z,2.70
2018-07-27T22:46:30.583Z,2.73
2018-07-27T22:49:00.194Z,2.60
2018-07-27T22:51:28.951Z,2.50
2018-07-27T22:53:58.767Z,3.20
2018-07-27T22:56:27.568Z,2.63
2018-07-27T22:58:56.242Z,3.00
2018-07-27T23:01:24.918Z,3.00
2018-07-27T23:03:53.658Z,2.60
2018-07-27T23:06:22.516Z,3.20
2018-07-27T23:08:53.183Z,3.20
2018-07-27T23:11:21.858Z,3.10
2018-07-27T23:13:50.553Z,3.20
2018-07-27T23:16:19.278Z,3.20
2018-07-27T23:18:49.088Z,3.10
2018-07-27T23:21:18.097Z,3.40
2018-07-27T23:23:47.405Z,3.53
2018-07-27T23:26:16.163Z,2.90
2018-07-27T23:28:45.748Z,3.33
2018-07-27T23:31:17.517Z,3.50
2018-07-27T23:33:46.925Z,2.90
2018-07-27T23:36:15.639Z,3.10
2018-07-27T23:38:44.373Z,3.60
2018-07-27T23:41:13.058Z,3.77
2018-07-27T23:43:41.693Z,3.53
2018-07-27T23:46:10.445Z,3.13
2018-07-27T23:48:39.112Z,3.20
2018-07-27T23:51:08.066Z,3.40
2018-07-27T23:53:36.695Z,3.60
2018-07-27T23:56:05.406Z,3.40
2018-07-27T23:58:34.082Z,3.20
